Date,TemperatureHighF,TemperatureAvgF,TemperatureLowF,DewpointHighF,DewpointAvgF,DewpointLowF,HumidityHigh,HumidityAvg,HumidityLow,PressureMaxIn,PressureMinIn,WindSpeedMaxMPH,WindSpeedAvgMPH,GustSpeedMaxMPH,PrecipitationSumIn
2012-1-1,34,30,28,29,25,23,90,81,75,30.47,30.25,6,2,10,0.00
2012-1-2,37,30,27,30,26,23,95,85,73,30.25,29.95,7,1,9,0.00
2012-1-3,44,33,22,39,31,21,97,92,84,30.33,30.13,3,0,9,0.00
2012-1-4,55,45,28,40,36,27,97,71,48,30.23,29.93,8,1,14,0.02
2012-1-5,44,35,25,38,30,22,94,80,56,30.15,29.95,13,2,19,0.00
2012-1-6,36,26,20,31,24,18,96,91,73,30.19,30.10,4,0,8,0.00
2012-1-7,34,31,23,31,29,22,97,94,86,30.38,30.24,5,1,7,0.00
2012-1-8,43,31,24,34,28,22,100,90,63,30.32,30.23,6,0,9,0.03
2012-1-9,45,32,22,35,29,21,98,88,65,30.24,29.96,6,0,10,0.04
2012-1-10,38,30,20,34,24,12,97,80,48,30.45,29.96,11,2,16,0.08
2012-1-11,31,22,12,22,16,9,93,81,64,30.57,30.44,5,0,6,0.01
2012-1-12,32,20,10,25,16,8,93,88,69,30.50,30.30,4,0,6,0.00
2012-1-13,30,22,10,25,19,8,94,89,82,30.32,29.99,5,0,6,0.00
2012-1-14,39,28,20,30,23,16,94,82,65,29.99,29.64,12,2,15,0.00
2012-1-15,31,19,10,23,15,8,94,85,62,29.90,29.80,5,1,9,0.00
2012-1-16,26,18,4,21,14,1,100,85,76,30.02,29.89,9,2,13,0.00
2012-1-17,34,27,19,29,21,14,93,77,68,29.90,29.60,16,5,32,0.00
2012-1-18,22,21,18,20,18,14,93,89,81,29.83,29.62,8,2,12,0.00
2012-1-19,21,20,17,20,18,15,100,93,91,29.81,29.50,6,1,9,0.00
2012-1-20,34,31,27,34,30,25,98,96,91,29.73,29.12,6,1,10,0.08
2012-1-21,35,28,16,32,26,14,96,92,86,29.83,29.17,11,3,16,0.11
2012-1-22,36,34,30,32,30,26,95,86,68,29.77,29.61,9,1,10,0.09
2012-1-23,34,20,10,30,17,8,96,90,77,30.08,29.70,6,1,9,0.12
2012-1-24,36,35,35,30,29,26,81,80,68,30.00,29.94,4,1,10,0.02
2012-1-25,40,36,31,34,31,28,94,82,69,30.14,29.94,10,3,20,0.00
2012-1-26,40,34,21,35,27,16,93,76,54,30.32,29.74,13,3,18,0.00
2012-1-27,32,18,8,25,15,6,95,89,75,30.50,30.32,5,0,8,0.00
2012-1-28,40,29,13,28,22,11,95,78,61,30.40,30.10,9,1,11,0.00
2012-1-29,47,41,37,40,33,28,98,75,52,30.10,29.59,9,2,15,0.53
2012-1-30,43,37,30,38,35,29,98,92,73,29.88,29.58,13,2,16,0.03
2012-1-31,44,34,28,36,31,27,97,90,70,29.95,29.85,9,1,13,0.00
2012-2-1,37,33,27,37,32,26,98,96,92,30.22,29.81,9,0,10,0.27
2012-2-2,37,29,24,34,28,23,98,95,85,30.40,30.22,3,0,5,0.00
2012-2-3,41,32,26,34,29,26,97,91,74,30.34,30.24,6,2,10,0.01
2012-2-4,42,33,26,33,28,25,93,84,68,30.31,30.22,7,2,10,0.01
2012-2-5,42,31,24,33,27,23,95,85,64,30.28,30.18,7,1,10,0.00
2012-2-6,46,34,25,32,27,22,91,77,56,30.19,30.07,9,2,13,0.00
2012-2-7,45,34,27,27,24,22,83,69,46,30.08,29.94,9,2,11,0.00
2012-2-8,36,32,30,34,29,22,100,86,70,30.26,30.00,5,0,6,0.02
2012-2-9,37,34,32,35,33,31,97,95,89,30.29,30.11,5,1,6,0.04
2012-2-10,41,36,34,39,35,32,97,95,91,30.11,29.95,6,2,10,0.01
2012-2-11,38,36,33,37,35,32,99,97,94,29.98,29.93,3,0,5,0.12
2012-2-12,41,35,31,38,34,30,99,97,84,29.94,29.74,5,0,8,0.01
2012-2-13,43,35,30,38,33,29,100,93,78,29.83,29.74,5,1,11,0.01
2012-2-14,32,29,24,32,28,23,98,97,96,29.95,29.77,3,0,5,0.01
2012-2-15,37,29,22,31,26,21,98,90,70,30.26,29.96,5,0,6,0.03
2012-2-16,36,29,21,32,28,20,97,94,78,30.26,30.11,3,0,5,0.03
2012-2-17,38,33,27,38,32,26,98,96,93,30.20,29.76,5,1,17,0.28
2012-2-18,40,34,31,34,32,30,98,89,77,29.88,29.76,13,4,18,0.03
2012-2-19,42,33,27,33,28,23,96,83,61,29.85,29.79,11,2,14,0.03
2012-2-20,35,31,26,32,29,23,97,92,84,29.91,29.77,6,1,6,0.01
2012-2-21,49,40,32,46,38,31,99,93,81,29.88,29.71,13,3,15,0.14
2012-2-22,49,40,29,40,33,22,94,77,38,29.94,29.59,16,4,21,0.00
2012-2-23,43,32,24,32,26,22,94,80,53,30.15,29.94,9,2,10,0.00
2012-2-24,45,35,27,37,29,24,97,78,55,30.13,29.43,12,1,12,0.29
2012-2-25,39,32,24,38,30,22,97,93,79,29.92,29.39,13,3,17,0.04
2012-2-26,35,27,20,28,24,18,96,89,70,30.04,29.92,9,1,11,0.13
2012-2-27,31,19,6,23,16,3,94,85,66,30.08,29.96,7,1,9,0.01
2012-2-28,31,21,4,26,18,1,100,88,79,29.96,29.57,6,1,7,0.05
2012-2-29,38,32,27,32,28,24,97,83,64,29.61,29.46,14,3,20,0.18
2012-3-1,40,30,20,29,25,18,94,83,53,30.10,29.61,6,2,15,0.10
2012-3-2,39,31,19,32,27,18,94,83,64,30.22,30.10,14,3,15,0.00
2012-3-3,48,39,33,39,35,31,95,87,71,30.14,30.07,10,3,13,0.00
2012-3-4,53,42,32,40,35,32,100,78,48,30.13,29.77,11,2,11,0.01
2012-3-5,47,40,27,37,31,19,83,70,45,29.77,29.40,21,4,25,0.00
2012-3-6,38,29,20,21,17,13,88,63,38,30.08,29.56,7,1,12,0.00
2012-3-7,42,28,16,24,18,13,91,70,38,30.39,30.08,9,1,13,0.00
2012-3-8,55,36,22,34,27,20,93,73,39,30.39,30.14,9,0,9,0.00
2012-3-9,63,42,27,34,29,25,93,65,27,30.15,29.78,15,2,20,0.00
2012-3-10,52,45,35,37,33,24,77,63,49,29.78,29.51,11,2,15,0.00
2012-3-11,44,37,30,38,34,25,100,88,70,29.65,29.36,12,3,24,0.36
2012-3-12,41,33,24,39,30,22,97,90,72,29.70,29.30,8,1,13,0.21
2012-3-13,45,38,28,41,31,22,96,77,43,29.74,29.15,21,4,23,0.09
2012-3-14,42,36,26,38,33,21,97,86,71,29.84,29.74,8,2,11,0.15
2012-3-15,48,44,39,48,43,38,98,96,91,29.74,29.48,10,3,14,1.25
2012-3-16,48,40,32,41,35,29,100,84,52,29.53,29.32,11,3,24,0.15
2012-3-17,45,37,26,39,32,24,98,83,51,29.46,29.19,12,2,16,0.16
2012-3-18,45,32,22,34,27,21,95,83,49,29.54,29.40,7,1,12,0.00
2012-3-19,41,31,24,28,22,15,100,72,34,29.75,29.55,11,3,17,0.00
2012-3-20,45,38,29,39,32,21,97,81,66,29.78,29.49,20,4,24,0.16
2012-3-21,38,34,31,34,31,28,96,91,74,29.83,29.66,10,2,15,0.01
2012-3-22,36,32,29,32,30,28,97,93,81,29.94,29.55,8,1,11,0.34
2012-3-23,45,34,25,36,30,24,97,86,58,30.06,29.81,6,1,7,0.04
2012-3-24,49,38,27,36,32,26,97,80,57,30.06,29.79,9,2,12,0.00
2012-3-25,61,47,35,43,36,29,89,67,43,29.80,29.46,11,2,13,0.00
2012-3-26,45,39,31,44,37,30,97,93,87,29.69,29.46,8,1,11,0.57
2012-3-27,48,39,29,42,36,28,98,90,73,29.80,29.56,10,1,10,0.07
2012-3-28,50,41,34,42,39,34,99,93,63,29.66,29.52,15,2,15,0.19
2012-4-5,39,33,28,36,31,27,97,92,82,29.97,29.85,3,1,13,0.01
2012-4-6,43,32,24,35,30,23,97,90,68,30.18,29.95,4,1,12,0.01
2012-4-7,49,36,24,32,26,22,97,72,35,30.23,30.16,2,1,10,0.01
2012-4-8,58,44,32,30,27,24,81,55,32,30.19,29.95,5,3,19,0.00
2012-4-9,63,50,40,44,32,26,88,51,34,29.94,29.74,3,2,12,0.00
2012-4-10,65,53,42,46,37,32,90,56,33,29.73,29.54,3,2,11,0.00
2012-4-11,64,49,40,46,41,35,93,75,44,29.51,29.30,6,2,18,0.04
2012-4-12,58,46,36,42,37,33,98,74,40,29.60,29.48,9,3,17,0.00
2012-4-13,58,43,29,41,32,26,98,70,30,29.67,29.58,5,1,10,0.01
2012-4-14,61,45,27,38,30,24,95,62,27,29.82,29.64,10,1,14,0.00
2012-4-15,58,45,36,40,34,27,92,69,31,29.95,29.81,8,1,13,0.01
2012-4-16,49,43,33,48,40,30,97,91,80,29.90,29.82,9,2,14,0.27
2012-4-17,52,43,32,41,35,30,97,75,45,30.02,29.85,8,2,13,0.02
2012-4-18,56,45,39,46,39,34,96,82,47,29.88,29.78,9,2,15,0.03
2012-4-19,55,40,30,45,36,29,98,89,47,29.99,29.83,7,1,9,0.17
2012-4-20,60,52,46,50,47,44,98,85,61,29.94,29.83,12,3,17,0.01
2012-4-21,68,54,41,50,46,40,98,77,46,29.97,29.88,8,1,11,0.00
2012-4-22,79,59,42,56,48,41,97,72,35,29.90,29.67,7,1,11,0.00
2012-4-23,81,64,48,57,52,47,97,70,34,29.69,29.50,22,1,23,0.00
2012-4-24,73,60,48,58,51,43,98,75,42,29.64,29.51,10,2,23,0.06
2012-4-25,71,57,45,55,48,43,95,74,42,29.67,29.44,7,1,11,0.07
2012-4-26,54,50,41,52,47,35,97,91,77,29.69,29.24,12,2,20,0.36
2012-4-27,55,43,33,40,34,31,96,73,43,30.05,29.70,12,3,16,0.01
2012-4-28,58,44,29,40,35,28,97,75,44,30.09,29.97,7,1,13,0.00
2012-4-29,63,48,33,48,41,32,98,78,47,29.97,29.61,10,2,16,0.00
2012-4-30,61,50,44,49,43,36,97,79,41,29.61,29.41,19,4,23,0.35
2012-5-1,52,45,35,38,35,32,92,68,50,29.72,29.57,16,4,18,0.00
2012-5-2,53,42,34,42,34,30,96,76,43,29.79,29.66,10,2,13,0.10
2012-5-3,50,44,39,47,41,34,96,89,75,29.71,29.56,8,1,17,0.38
2012-5-4,52,44,38,42,38,34,95,79,58,30.01,29.69,11,4,15,0.00
2012-5-5,55,43,32,37,32,29,94,68,40,30.24,30.01,10,3,16,0.00
2012-5-6,60,45,28,38,33,27,96,67,36,30.32,30.24,8,1,12,0.00
2012-5-7,66,50,32,47,37,31,97,67,33,30.24,30.00,6,1,10,0.00
2012-5-8,72,56,38,50,42,37,97,67,32,30.00,29.71,6,1,9,0.00
2012-5-9,62,51,40,44,33,20,93,55,24,29.90,29.70,15,3,22,0.00
2012-5-10,56,46,31,30,24,17,85,45,23,30.12,29.90,10,2,14,0.00
2012-5-11,61,45,27,34,28,20,93,58,22,30.19,30.06,8,1,12,0.00
2012-5-12,69,51,30,42,34,27,96,60,22,30.18,30.06,8,1,10,0.00
2012-5-13,77,57,35,52,40,32,96,62,20,30.08,29.91,6,1,8,0.00
2012-5-14,83,62,40,54,45,39,96,62,23,29.94,29.76,9,1,9,0.00
2012-5-15,84,64,42,54,47,41,97,61,26,29.77,29.62,7,1,12,0.00
2012-5-16,75,60,45,48,40,29,91,52,21,29.71,29.63,10,2,19,0.00
2012-5-17,67,54,38,45,37,30,94,58,29,29.67,29.59,9,2,15,0.00
2012-5-18,65,50,30,36,31,25,91,53,23,29.87,29.63,12,1,15,0.00
2012-5-19,65,52,37,42,35,27,85,57,24,29.90,29.85,8,1,11,0.00
2012-5-20,69,56,40,51,43,37,90,64,33,29.88,29.80,7,1,13,0.00
2012-5-21,67,56,51,59,52,48,97,89,66,29.80,29.61,9,2,14,0.23
2012-5-22,60,51,45,49,43,38,95,76,45,29.67,29.62,11,4,24,0.01
2012-5-23,55,47,40,47,42,38,92,83,62,29.72,29.63,10,3,17,0.19
2012-5-24,60,48,37,44,39,35,95,73,45,29.70,29.58,8,2,10,0.00
2012-5-25,65,55,46,40,35,31,76,48,31,29.68,29.61,17,4,21,0.00
2012-5-26,64,54,41,44,36,32,89,51,34,29.68,29.61,10,2,19,0.00
2012-5-27,71,54,35,50,40,33,97,64,32,29.73,29.66,12,1,15,0.00
2012-5-28,68,54,41,48,42,36,92,65,39,29.83,29.73,11,2,15,0.00
2012-5-29,61,53,44,47,40,35,91,65,39,29.87,29.76,11,2,17,0.00
2012-5-30,70,55,42,50,41,36,88,62,35,30.00,29.87,11,2,14,0.00
2012-5-31,65,59,53,58,51,44,92,75,66,29.94,29.79,8,2,13,0.02
2012-6-1,77,63,48,61,54,47,100,76,47,29.79,29.53,8,1,12,0.02
2012-6-2,68,59,49,56,50,44,97,74,44,29.64,29.52,11,2,17,0.24
2012-6-3,66,56,46,50,46,41,93,71,47,29.72,29.65,7,1,11,0.00
2012-6-4,71,58,52,59,54,49,97,87,59,29.71,29.42,11,1,12,0.74
2012-6-5,52,48,44,51,46,43,98,94,82,29.80,29.48,10,3,16,0.25
2012-6-6,54,45,37,43,39,34,94,80,52,29.90,29.76,11,3,19,0.10
2012-6-7,62,47,32,50,42,30,100,84,46,29.90,29.75,8,1,15,0.07
2012-6-8,58,49,39,46,43,36,98,80,47,29.75,29.70,11,2,13,0.02
2012-6-9,52,44,35,49,42,34,97,93,85,29.81,29.70,9,2,14,0.27
2012-6-10,68,56,43,52,46,41,92,71,46,29.96,29.82,11,3,16,0.00
2012-6-11,74,61,48,54,48,43,94,67,34,29.98,29.81,7,1,9,0.00
2012-6-12,73,58,43,59,51,42,98,80,46,29.81,29.64,9,1,14,0.04
2012-6-13,69,59,46,55,49,41,94,72,38,29.76,29.65,9,2,12,0.03
2012-6-14,68,54,41,48,42,39,93,68,37,29.83,29.74,9,2,13,0.00
2012-6-15,71,56,38,49,42,36,96,64,29,29.98,29.78,6,1,9,0.00
2012-6-16,77,61,42,58,48,40,96,66,38,29.97,29.62,9,1,13,0.00
2012-6-17,74,64,52,58,49,42,90,61,38,29.61,29.42,12,3,23,0.00
2012-6-18,62,52,46,51,45,40,96,78,52,29.69,29.46,9,2,15,0.03
2012-6-19,65,53,41,49,43,39,98,72,42,29.93,29.69,10,2,14,0.00
2012-6-20,73,57,37,54,44,36,97,67,32,30.02,29.78,7,1,9,0.00
2012-6-21,83,67,49,60,50,43,88,60,25,29.78,29.44,7,1,10,0.00
2012-6-22,79,68,55,61,53,48,96,59,42,29.51,29.28,10,2,15,0.10
2012-6-23,71,60,51,57,53,49,100,80,50,29.64,29.46,9,1,10,0.01
2012-6-24,72,60,50,56,51,43,97,76,37,29.77,29.56,7,1,11,0.10
2012-6-25,74,62,51,56,50,47,90,66,42,29.75,29.56,12,2,16,0.00
2012-6-26,55,50,47,53,48,45,100,93,84,29.84,29.50,12,2,19,1.01
2012-6-27,70,56,44,54,47,43,98,76,43,29.93,29.80,6,1,9,0.01
2012-6-28,80,63,45,63,52,44,97,71,36,29.80,29.66,10,2,13,0.00
2012-6-29,76,66,56,60,54,50,91,67,47,29.82,29.72,9,1,12,0.00
2012-6-30,76,64,53,63,58,52,97,80,55,29.75,29.62,6,1,10,0.00
2012-7-1,76,64,54,60,56,51,96,76,45,29.71,29.65,9,2,14,0.00
2012-7-2,79,64,46,57,51,45,97,67,32,29.74,29.50,7,1,11,0.00
2012-7-3,67,58,44,52,44,35,89,62,32,29.84,29.48,14,4,23,0.01
2012-7-4,71,55,36,51,43,34,96,67,36,29.88,29.75,5,1,10,0.00
2012-7-5,79,60,41,55,46,40,97,67,29,29.81,29.75,7,1,11,0.00
2012-7-6,83,64,44,60,50,43,100,67,27,29.88,29.80,6,1,10,0.00
2012-7-7,90,69,49,64,54,45,95,64,22,29.87,29.75,7,1,10,0.00
2012-7-8,93,74,54,67,58,52,95,62,27,29.82,29.68,7,1,10,0.00
2012-7-9,88,75,62,70,61,54,88,63,36,29.79,29.65,8,1,10,0.00
2012-7-10,89,75,62,71,61,56,90,65,36,29.77,29.65,7,1,11,0.00
2012-7-11,90,77,62,71,61,53,97,62,29,29.74,29.62,5,1,8,0.00
2012-7-12,91,71,55,65,57,53,98,67,28,29.67,29.54,6,0,7,0.00
2012-7-13,87,75,64,68,63,58,94,67,38,29.66,29.54,6,1,9,0.09
2012-7-14,83,73,64,68,62,57,90,70,44,29.67,29.54,6,1,13,0.00
2012-7-15,81,69,54,64,56,40,90,68,25,29.64,29.51,8,2,15,0.00
2012-7-16,86,71,54,68,59,48,91,68,45,29.67,29.50,9,2,15,0.00
2012-7-17,82,70,61,70,62,58,96,79,50,29.61,29.54,6,1,11,0.55
2012-7-18,87,72,55,68,60,55,98,71,34,29.67,29.59,12,1,14,0.00
2012-7-19,88,68,55,69,60,53,97,78,46,29.75,29.66,5,0,9,0.00
2012-7-20,81,70,56,68,60,55,96,72,53,29.86,29.64,3,1,16,0.18
2012-7-21,78,64,50,61,55,50,98,75,46,29.96,29.82,2,1,9,0.00
2012-7-22,84,68,50,60,53,44,98,63,32,29.82,29.60,3,1,13,0.00
2012-7-23,72,61,48,51,45,41,89,58,35,29.92,29.71,11,2,16,0.00
2012-7-24,82,62,42,58,48,41,96,65,33,29.88,29.74,8,1,10,0.00
2012-7-25,83,67,49,62,54,48,97,69,36,29.80,29.68,6,1,9,0.00
2012-7-26,87,67,51,62,55,50,97,71,31,29.73,29.63,9,1,10,0.00
2012-7-27,86,75,54,62,55,46,95,53,28,29.68,29.59,8,1,10,0.00
2012-7-28,82,64,49,54,48,40,92,61,23,29.84,29.68,9,1,11,0.00
2012-7-29,83,63,42,60,49,40,92,66,28,29.90,29.75,6,1,8,0.00
2012-7-30,84,65,48,58,51,46,95,65,31,29.80,29.72,8,1,12,0.00
2012-7-31,84,64,47,54,47,38,92,59,20,29.87,29.76,8,1,13,0.00
2012-8-1,84,65,44,55,46,40,91,56,21,29.89,29.76,10,1,15,0.00
2012-8-2,81,65,47,56,48,41,86,57,33,29.80,29.72,7,1,10,0.00
2012-8-3,81,64,45,51,44,38,87,51,22,29.87,29.80,6,1,11,0.00
2012-8-4,87,68,45,59,50,42,92,59,26,29.88,29.74,6,1,9,0.00
2012-8-5,92,71,48,62,53,46,93,59,23,29.77,29.67,6,1,9,0.00
2012-8-6,90,71,55,65,57,50,92,65,27,29.85,29.71,6,0,9,0.00
2012-8-7,93,73,51,64,54,46,94,57,24,29.84,29.64,9,1,12,0.00
2012-8-8,86,71,52,61,53,43,86,55,24,29.83,29.61,9,2,13,0.00
2012-8-9,88,65,43,62,46,38,87,56,19,29.92,29.74,6,0,9,0.00
2012-8-10,72,51,44,57,46,42,93,83,56,29.78,29.76,3,0,6,0.00
2012-8-11,88,67,45,58,46,39,82,53,22,29.82,29.71,2,0,9,0.00
2012-8-12,90,68,48,57,49,44,87,56,21,29.80,29.66,2,1,11,0.00
2012-8-13,94,80,48,58,48,39,88,36,17,29.75,29.62,9,2,13,0.00
2012-8-14,90,70,45,63,47,39,85,49,23,29.66,29.51,8,1,12,0.00
2012-8-15,81,73,57,53,48,45,65,42,31,29.76,29.59,11,3,19,0.00
2012-8-16,86,67,50,57,44,31,82,49,15,29.82,29.73,6,1,10,0.00
2012-8-17,92,67,43,55,46,38,86,54,17,29.86,29.74,5,1,6,0.00
2012-8-18,94,70,50,67,50,43,89,55,19,29.78,29.60,9,1,10,0.00
2012-8-19,94,74,52,62,51,45,84,51,19,29.68,29.56,6,0,8,0.00
2012-8-20,90,69,49,61,46,35,88,52,16,29.74,29.62,6,1,10,0.00
2012-8-21,82,64,49,64,56,43,97,76,42,29.72,29.60,5,0,7,0.26
2012-8-22,76,60,43,55,48,42,95,68,35,29.80,29.61,9,1,13,0.00
2012-8-23,75,67,42,51,45,39,95,49,29,29.76,29.65,15,3,20,0.00
2012-8-24,72,66,43,42,38,34,77,37,26,29.90,29.67,8,2,12,0.00
2012-8-25,77,64,35,49,42,34,93,50,26,29.84,29.64,8,2,12,0.00
2012-8-26,86,65,44,54,44,36,87,53,18,29.64,29.53,10,1,13,0.00
2012-8-27,81,68,47,52,47,41,87,50,26,29.82,29.61,9,1,11,0.00
2012-8-28,80,54,40,52,43,38,93,72,30,29.79,29.72,7,1,11,0.00
2012-8-29,71,58,41,49,42,38,90,59,34,29.88,29.72,3,2,13,0.00
2012-8-30,78,56,36,44,39,35,94,60,22,29.86,29.67,4,0,11,0.00
2012-8-31,82,58,36,50,39,34,92,57,21,29.68,29.58,9,1,15,0.00
2012-9-1,76,55,38,43,37,31,87,56,20,29.86,29.63,10,2,18,0.00
2012-9-2,75,53,34,45,36,30,87,59,23,29.92,29.86,9,1,12,0.00
2012-9-3,79,56,34,46,37,32,90,57,23,29.93,29.80,9,1,13,0.00
2012-9-4,79,58,37,45,40,34,91,58,25,29.98,29.87,7,1,12,0.00
2012-9-5,81,58,38,48,41,35,90,59,24,29.91,29.69,9,1,17,0.00
2012-9-6,75,58,43,49,44,38,86,63,34,29.94,29.76,10,2,14,0.00
2012-9-7,80,57,38,50,42,35,94,63,21,30.07,29.94,6,1,10,0.00
2012-9-8,82,55,39,51,43,35,88,68,26,29.99,29.89,6,1,7,0.00
2012-9-9,82,70,52,52,42,33,77,39,21,29.65,29.54,13,3,19,0.00
2012-9-10,68,55,43,50,37,24,85,57,20,29.87,29.62,16,4,24,0.00
2012-9-11,65,45,26,35,28,22,88,56,23,30.12,29.87,9,1,10,0.00
2012-9-12,70,46,27,37,29,23,88,58,22,30.29,30.12,8,1,9,0.00
2012-9-13,80,60,33,44,36,26,85,47,15,30.24,30.01,9,1,9,0.00
2012-9-14,85,58,36,47,36,23,92,54,11,30.01,29.80,5,0,10,0.00
2012-9-15,83,58,38,46,36,31,80,52,16,29.90,29.82,6,1,10,0.00
2012-9-16,81,56,38,45,36,22,82,54,12,29.98,29.89,7,1,10,0.00
2012-9-17,80,55,35,43,35,29,82,54,18,29.99,29.90,7,1,8,0.00
2012-9-18,84,56,36,45,35,30,84,53,16,29.95,29.83,6,0,8,0.00
2012-9-19,82,55,38,49,37,32,81,58,20,29.95,29.87,4,0,7,0.00
2012-9-20,86,58,38,47,39,34,85,57,18,29.97,29.86,6,0,7,0.00
2012-9-21,84,56,40,50,42,34,84,65,24,29.89,29.75,7,1,8,0.00
2012-9-22,80,61,38,49,46,35,89,60,31,29.84,29.76,6,0,9,0.00
2012-9-23,69,52,41,48,44,38,90,76,46,29.91,29.80,4,0,6,0.00
2012-9-24,74,54,38,50,43,36,92,70,38,29.94,29.79,5,0,10,0.00
2012-9-25,72,49,38,51,42,36,94,79,42,29.86,29.77,7,0,13,0.00
2012-9-26,74,52,34,50,41,32,95,71,36,29.93,29.86,5,0,7,0.00
2012-9-27,77,54,36,51,42,33,92,68,32,29.94,29.81,5,0,9,0.00
2012-9-28,79,56,37,51,41,34,95,64,25,29.82,29.73,6,0,10,0.00
2012-9-29,77,56,41,50,44,37,87,66,36,29.92,29.79,9,1,12,0.00
2012-9-30,75,51,33,46,35,26,95,64,17,30.14,29.92,8,1,10,0.00
2012-10-1,76,52,32,40,34,26,83,55,24,30.14,29.76,9,1,12,0.00
2012-10-2,71,49,36,42,31,15,93,55,23,30.02,29.71,16,2,21,0.00
2012-10-3,58,43,31,33,27,19,77,54,33,30.28,30.02,8,1,12,0.00
2012-10-4,58,39,24,30,22,15,90,56,22,30.21,30.15,10,2,15,0.00
2012-10-5,48,28,20,28,19,15,85,72,42,30.30,30.21,8,1,9,0.00
2012-10-6,62,44,21,30,24,16,80,48,23,30.27,30.11,7,1,7,0.00
2012-10-7,28,26,23,22,19,18,81,75,67,30.11,30.07,0,0,1,0.00
2012-10-8,69,45,27,35,26,20,78,52,21,29.87,29.77,3,1,11,0.00
2012-10-9,67,42,27,37,30,22,83,64,31,29.95,29.84,2,0,8,0.00
2012-10-10,71,47,29,38,31,25,89,62,29,29.89,29.75,5,1,11,0.00
2012-10-11,71,46,29,44,33,26,92,64,29,29.85,29.67,2,0,7,0.00
2012-10-12,64,46,25,47,35,23,91,68,39,29.78,29.65,4,1,11,0.00
2012-10-13,58,52,48,52,49,46,97,91,77,29.99,29.79,4,2,13,0.05
2012-10-14,66,55,49,53,49,47,96,83,52,29.99,29.74,5,2,22,0.10
2012-10-15,64,56,52,54,52,50,97,88,61,29.73,29.43,5,3,15,0.42
2012-10-16,58,48,36,57,32,28,97,58,35,29.91,29.27,19,3,28,0.01
2012-10-17,54,39,26,38,31,25,96,77,39,30.17,29.91,6,1,12,0.00
2012-10-18,63,44,29,38,32,28,96,70,27,30.16,29.72,9,0,9,0.00
2012-10-19,61,52,42,51,45,36,92,77,66,29.75,29.45,15,3,23,0.05
2012-10-20,51,41,32,45,32,22,92,73,37,29.71,29.46,17,2,17,0.00
2012-10-21,48,33,22,36,28,20,96,84,56,29.81,29.70,7,1,12,0.00
2012-10-22,44,36,32,36,33,30,96,89,64,29.75,29.42,9,2,14,0.18
2012-10-23,46,33,25,37,31,24,97,91,64,29.86,29.56,10,1,12,0.00
2012-10-24,43,34,25,36,32,24,97,92,75,30.04,29.86,4,0,6,0.08
2012-10-25,43,36,28,39,34,27,97,93,81,30.33,30.03,5,0,8,0.01
2012-10-26,37,33,27,35,32,26,98,96,91,30.32,30.00,3,0,5,0.15
2012-10-27,42,39,36,42,38,35,98,97,96,30.00,29.73,8,1,9,0.16
2012-10-28,52,47,41,50,46,41,100,96,90,29.78,29.71,6,1,9,0.08
2012-10-29,63,52,44,56,48,42,99,88,62,29.85,29.65,18,3,23,0.20
2012-10-30,56,47,39,51,45,39,98,93,77,29.86,29.75,8,0,9,0.04
2012-10-31,60,50,47,53,49,47,98,95,79,29.74,29.53,1,0,7,0.01
2012-11-1,58,48,37,50,44,36,98,88,63,29.89,29.63,10,1,14,0.10
2012-11-2,58,47,41,47,44,40,98,89,61,29.97,29.89,6,0,9,0.00
2012-11-3,50,46,39,49,45,38,100,97,94,30.03,29.89,6,1,11,0.11
2012-11-4,58,50,44,53,48,43,99,93,81,30.17,30.02,6,0,9,0.02
2012-11-5,57,49,32,54,47,31,96,91,74,30.09,30.02,8,2,14,0.00
2012-11-6,64,46,32,55,43,31,99,90,62,30.06,29.73,7,1,10,0.02
2012-11-7,51,40,25,49,33,23,97,79,41,29.88,29.73,10,1,14,0.01
2012-11-8,45,34,24,33,30,22,96,87,58,29.85,29.59,9,1,11,0.03
2012-11-9,32,30,24,31,28,23,97,94,90,29.82,29.63,6,1,9,0.16
2012-11-10,30,23,16,24,20,14,100,89,72,30.11,29.81,7,1,10,0.01
2012-11-11,34,27,16,31,25,14,96,94,88,30.27,30.18,0,0,6,0.01
2012-11-12,34,32,31,33,32,30,97,97,95,30.23,30.12,1,0,6,0.20
2012-11-13,38,34,32,37,34,31,98,97,96,30.18,30.07,0,0,5,0.36
2012-11-14,35,34,32,34,33,31,98,98,98,30.24,30.07,5,0,7,0.09
2012-11-15,40,36,32,38,35,31,98,95,91,30.24,29.89,5,1,10,0.01
2012-11-16,44,37,32,41,35,31,98,95,88,29.90,29.81,5,0,5,0.00
2012-11-17,51,41,34,46,40,34,99,95,81,29.81,29.42,14,1,20,0.21
2012-11-18,44,38,31,38,35,30,98,89,74,29.78,29.57,12,2,19,0.02
2012-11-19,47,43,39,45,42,37,97,95,87,29.72,29.52,8,2,16,0.70
2012-11-20,48,44,40,48,44,38,100,97,94,29.67,29.53,9,2,15,0.46
2012-11-21,44,38,30,40,36,28,98,91,73,30.06,29.47,15,3,22,0.30
2012-11-22,41,32,28,35,30,27,100,92,73,30.36,30.06,4,0,11,0.14
2012-11-23,44,38,30,40,34,29,97,89,73,30.28,29.93,10,1,13,0.30
2012-11-24,41,37,30,41,36,28,100,97,91,30.04,29.92,9,2,18,0.05
2012-12-20,40,37,34,32,29,26,92,72,56,29.79,29.68,14,2,17,0.20
2012-12-21,38,34,32,36,33,31,99,95,89,29.82,29.69,6,0,8,0.22
2012-12-22,40,34,26,36,32,25,97,94,77,29.74,29.52,13,1,13,0.19
2012-12-23,37,31,22,33,29,20,98,92,78,29.83,29.53,15,0,15,0.01
2012-12-24,32,30,28,32,29,27,98,97,97,29.90,29.57,0,0,0,0.00
2012-12-25,32,30,21,31,29,20,100,95,90,30.11,29.76,5,0,5,0.03
2012-12-26,33,30,28,30,28,26,97,96,91,29.87,29.73,7,0,7,0.04
2012-12-27,32,29,28,31,28,27,98,96,91,30.09,29.87,5,0,5,0.01
2012-12-28,32,27,19,30,26,18,97,96,92,30.16,30.09,5,0,5,0.00
2012-12-29,26,21,14,25,20,12,97,95,91,30.18,30.11,7,0,7,0.00
2012-12-30,26,22,15,24,20,14,97,96,94,30.32,30.17,6,0,6,0.00
2012-12-31,29,22,12,26,20,10,96,93,85,30.44,30.28,5,0,5,0.00
2013-1-1,25,20,13,22,19,11,96,94,90,30.60,30.42,5,0,5,0.00